• Join FlightAware (Why Join?)
  • Login
  • US Flag 
03:34PM EST


 

Airport Tracker/Info


-or-


 

Live Flight TrackerFlight Track Log ✈ N215BN ✈ 22-Mar-2014 ✈ KSRQ - KLNA

Flight Track Log - Related Links

Times and Time Zones

All times are in EDT time to prevent confusion due to time zone crossing. See the N215BN flight status page for this flight to view local times or setup timezone preferences in your user account.

Time Position Orientation Groundspeed Altitude Reporting Facility
EDT Latitude Longitude Course Direction KTS MPH feet Rate Location/Type
02:01PM 27.3696 -82.5215 132° Southeast  Level FlightAware Approximate
02:02PM 27.3437 -82.4887 132° Southeast  Level FlightAware Approximate
02:03PM 27.3178 -82.4559 132° Southeast  Level FlightAware Approximate
02:04PM 27.3055 -82.4143 156° South  Level Estimated
02:05PM 27.2932 -82.3727 127° Southeast  Level Estimated
02:06PM 27.2809 -82.3310 138° Southeast  Level Estimated
02:07PM 27.2430 -82.3207 166° South  Level FlightAware Approximate
02:08PM 27.2051 -82.3104 166° South  Level FlightAware Approximate
02:09PM 27.1939 -82.2684 134° Southeast  Level Estimated
02:10PM 27.1604 -82.2460 149° Southeast  Level FlightAware Approximate
02:11PM 27.1269 -82.2236 149° Southeast  Level FlightAware Approximate
02:12PM 27.1167 -82.1813 111° Southeast  Level Estimated
02:13PM 27.1065 -82.1391 109° East  Level Estimated
02:14PM 27.0912 -82.0988 113° Southeast  Level FlightAware Approximate
02:15PM 27.0759 -82.0585 113° Southeast  Level FlightAware Approximate
02:16PM 27.0606 -82.0183 113° Southeast  Level FlightAware Approximate
02:17PM 27.0452 -81.9780 113° Southeast  Level FlightAware Approximate
02:18PM 27.0299 -81.9378 113° Southeast  Level FlightAware Approximate
02:19PM 27.0145 -81.8976 113° Southeast  Level FlightAware Approximate
02:20PM 26.9991 -81.8574 113° Southeast  Level FlightAware Approximate
02:21PM 26.9837 -81.8172 113° Southeast  Level FlightAware Approximate
02:22PM 26.9683 -81.7770 113° Southeast  Level FlightAware Approximate
02:23PM 26.9529 -81.7368 113° Southeast  Level FlightAware Approximate
02:24PM 26.9375 -81.6966 113° Southeast  Level FlightAware Approximate
02:25PM 26.9221 -81.6565 113° Southeast  Level FlightAware Approximate
02:26PM 26.9066 -81.6163 113° Southeast  Level FlightAware Approximate
02:27PM 26.8912 -81.5762 113° Southeast  Level FlightAware Approximate
02:28PM 26.8757 -81.5361 113° Southeast  Level FlightAware Approximate
02:29PM 26.8602 -81.4960 113° Southeast  Level FlightAware Approximate
02:30PM 26.8447 -81.4559 113° Southeast  Level FlightAware Approximate
02:31PM 26.8292 -81.4158 113° Southeast  Level FlightAware Approximate
02:32PM 26.8218 -81.3729 90° East  Level Estimated
02:33PM 26.8197 -81.3293 93° East  Level FlightAware Approximate
02:34PM 26.8121 -81.2865 93° East  Level Estimated
02:35PM 26.8105 -81.2428 92° East  Level FlightAware Approximate
02:36PM 26.8089 -81.1992 92° East  Level FlightAware Approximate
02:36PM 27.4000 -82.5667 132° Southeast 129 148 400  Level Tampa TRACON
02:37PM 26.8072 -81.1555 92° East  Level FlightAware Approximate
02:38PM 26.8056 -81.1119 92° East  Level FlightAware Approximate
02:38PM 27.3667 -82.6000 222° Southwest 102 117 1,600  Level Tampa TRACON
02:39PM 26.8039 -81.0682 92° East  Level FlightAware Approximate
02:39PM 27.3500 -82.6167 222° Southwest 121 139 2,200  Level Tampa TRACON
02:40PM 26.8022 -81.0246 92° East  Level FlightAware Approximate
02:40PM 27.3167 -82.6167 180° South 123 142 2,800  Level Tampa TRACON
02:41PM 26.7929 -80.9822 95° East  Level Estimated
02:41PM 27.2833 -82.6167 180° South 123 142 3,500  Level Tampa TRACON
02:42PM 27.3708 -82.5231 132° Southeast  Level FlightAware Approximate
02:42PM 27.2500 -82.6000 156° South 123 142 4,200  Level Tampa TRACON
02:43PM 27.2167 -82.5833 156° South 129 148 4,900 360 Climbing Tampa TRACON
02:44PM 27.1833 -82.5667 156° South 151 174 5,000 60 Climbing Tampa TRACON
02:45PM 27.1333 -82.5500 163° South 173 199 5,100 360 Climbing Tampa TRACON
02:45PM 27.1000 -82.5500 180° South 130 150 5,700 -300 Climbing Tampa TRACON
03:01PM 27.3667 -82.5333 107° East 73 84 500 -360 Descending Tampa TRACON
03:02PM 26.9160 -81.7535 107° East  Level FlightAware Approximate
03:03PM 26.9030 -81.7045 107° East  Level FlightAware Approximate
03:03PM 27.3128 -82.4526 127° Southeast  Level FlightAware Approximate
03:04PM 26.8899 -81.6555 107° East  Level FlightAware Approximate
03:05PM 26.8767 -81.6066 107° East  Level FlightAware Approximate
03:06PM 26.8636 -81.5576 107° East  Level FlightAware Approximate
03:10PM 27.2175 -82.5727 265° West  Level FlightAware Approximate
03:11PM 27.1990 -82.5479 119° Southeast  Level FlightAware Approximate
03:12PM 27.1766 -82.5032 119° Southeast  Level FlightAware Approximate
03:13PM 27.1578 -82.4567 110° East  Level FlightAware Approximate
03:14PM 27.1419 -82.4087 110° East  Level FlightAware Approximate
03:15PM 27.1259 -82.3607 110° East  Level FlightAware Approximate
03:16PM 27.1099 -82.3127 111° Southeast  Level FlightAware Approximate
03:17PM 27.0939 -82.2647 111° Southeast  Level FlightAware Approximate
03:18PM 27.0779 -82.2168 111° Southeast  Level FlightAware Approximate
03:19PM 27.0618 -82.1688 111° Southeast  Level FlightAware Approximate
03:20PM 27.0461 -82.1207 109° East  Level FlightAware Approximate
03:21PM 27.0312 -82.0723 109° East  Level FlightAware Approximate
03:22PM 27.0163 -82.0240 109° East  Level FlightAware Approximate
03:23PM 27.0013 -81.9756 109° East  Level FlightAware Approximate
03:24PM 26.9864 -81.9273 109° East  Level FlightAware Approximate
03:25PM 26.9714 -81.8789 109° East  Level FlightAware Approximate
03:26PM 26.9564 -81.8306 109° East  Level FlightAware Approximate
03:27PM 26.9414 -81.7823 109° East  Level FlightAware Approximate
03:28PM 26.9264 -81.7340 109° East  Level FlightAware Approximate
03:29PM 26.9113 -81.6857 109° East  Level FlightAware Approximate
03:30PM 26.8963 -81.6374 109° East  Level FlightAware Approximate
03:31PM 26.8812 -81.5892 109° East  Level FlightAware Approximate
03:32PM 26.8661 -81.5409 109° East  Level FlightAware Approximate
03:33PM 26.8510 -81.4927 109° East  Level FlightAware Approximate
03:34PM 26.8359 -81.4445 109° East  Level FlightAware Approximate
03:35PM 26.8207 -81.3963 109° East  Level FlightAware Approximate
03:36PM 26.8167 -81.3459 90° East  Level FlightAware Approximate
03:37PM 26.8167 -81.2949 90° East  Level FlightAware Approximate
03:38PM 26.8154 -81.2438 93° East  Level FlightAware Approximate
03:39PM 26.8126 -81.1928 94° East  Level FlightAware Approximate
03:40PM 26.8098 -81.1418 94° East  Level FlightAware Approximate
03:41PM 26.8070 -81.0908 94° East  Level FlightAware Approximate
03:42PM 26.8041 -81.0398 94° East  Level FlightAware Approximate
03:43PM 26.8013 -80.9888 94° East  Level FlightAware Approximate
03:44PM 26.7978 -80.9379 95° East  Level FlightAware Approximate
03:45PM 26.7939 -80.8869 95° East  Level FlightAware Approximate
03:46PM 26.7900 -80.8361 95° East  Level FlightAware Approximate
03:47PM 26.7861 -80.7851 95° East  Level FlightAware Approximate
03:48PM 26.7795 -80.7348 106° East  Level FlightAware Approximate
03:49PM 26.7672 -80.6856 106° East  Level FlightAware Approximate
03:50PM 26.7534 -80.6369 108° East  Level FlightAware Approximate
03:51PM 26.7395 -80.5883 108° East  Level FlightAware Approximate
03:52PM 26.7256 -80.5396 108° East  Level FlightAware Approximate
03:53PM 26.7117 -80.4910 108° East  Level FlightAware Approximate
03:54PM 26.6975 -80.4425 110° East  Level FlightAware Approximate
03:55PM 26.6816 -80.3947 110° East  Level FlightAware Approximate
03:56PM 26.6656 -80.3469 110° East  Level FlightAware Approximate